createdAt,value
2023-01-12T00:01:42.454Z,62.55
2023-01-12T00:04:12.805Z,62.72
2023-01-12T00:06:40.226Z,62.96
2023-01-12T00:09:07.949Z,62.94
2023-01-12T00:11:36.332Z,62.92
2023-01-12T00:14:04.600Z,62.84
2023-01-12T00:16:35.191Z,62.95
2023-01-12T00:19:07.133Z,62.96
2023-01-12T00:21:41.253Z,62.73
2023-01-12T00:24:08.767Z,62.86
2023-01-12T00:26:35.804Z,62.80
2023-01-12T00:29:02.832Z,62.41
2023-01-12T00:31:29.933Z,62.58
2023-01-12T00:33:56.899Z,62.49
2023-01-12T00:36:23.998Z,62.68
2023-01-12T00:38:50.935Z,63.11
2023-01-12T00:41:37.494Z,62.60
2023-01-12T00:44:24.190Z,62.83
2023-01-12T00:46:51.294Z,62.74
2023-01-12T00:49:18.424Z,62.43
2023-01-12T00:51:45.608Z,62.61
2023-01-12T00:54:12.987Z,62.72
2023-01-12T00:56:40.223Z,62.64
2023-01-12T00:59:07.956Z,62.58
2023-01-12T01:01:35.578Z,62.54
2023-01-12T01:04:02.912Z,62.49
2023-01-12T01:06:31.276Z,62.93
2023-01-12T01:08:58.268Z,62.89
2023-01-12T01:11:25.261Z,63.04
2023-01-12T01:13:54.681Z,63.12
2023-01-12T01:16:21.740Z,63.19
2023-01-12T01:18:49.051Z,63.56
2023-01-12T01:21:16.309Z,63.61
2023-01-12T01:23:44.322Z,63.67
2023-01-12T01:26:18.268Z,63.66
2023-01-12T01:28:46.464Z,63.06
2023-01-12T01:31:16.212Z,62.90
2023-01-12T01:33:44.180Z,62.76
2023-01-12T01:36:14.554Z,62.52
2023-01-12T01:38:43.689Z,62.87
2023-01-12T01:41:17.734Z,62.95
2023-01-12T01:44:22.921Z,63.09
2023-01-12T01:46:55.189Z,63.24
2023-01-12T01:49:35.086Z,63.14
2023-01-12T01:52:20.252Z,62.91
2023-01-12T01:54:56.269Z,62.80
2023-01-12T01:57:31.998Z,62.40
2023-01-12T02:00:00.889Z,62.74
2023-01-12T02:02:28.161Z,62.33
2023-01-12T02:04:56.864Z,62.08
2023-01-12T02:07:24.126Z,61.99
2023-01-12T02:09:51.164Z,62.11
2023-01-12T02:12:37.428Z,61.93
2023-01-12T02:15:24.248Z,61.97
2023-01-12T02:18:15.099Z,61.65
2023-01-12T02:21:12.628Z,60.82
2023-01-12T02:24:14.253Z,60.87
2023-01-12T02:27:00.227Z,60.89
2023-01-12T02:30:06.159Z,61.07
2023-01-12T02:33:00.124Z,61.13
2023-01-12T02:35:40.594Z,60.93
2023-01-12T02:38:37.152Z,60.89
2023-01-12T02:41:46.139Z,61.05
2023-01-12T02:44:46.803Z,61.11
2023-01-12T02:47:24.584Z,61.44
2023-01-12T02:49:56.434Z,61.70
2023-01-12T02:52:26.847Z,61.97
2023-01-12T02:54:55.834Z,62.14
2023-01-12T02:57:25.591Z,62.28
2023-01-12T02:59:56.507Z,62.48
2023-01-12T03:02:25.966Z,62.25
2023-01-12T03:04:53.291Z,62.07
2023-01-12T03:07:33.402Z,62.22
2023-01-12T03:10:07.558Z,62.30
2023-01-12T03:12:38.165Z,62.22
2023-01-12T03:15:08.804Z,62.01
2023-01-12T03:17:53.418Z,61.53
2023-01-12T03:20:26.953Z,61.22
2023-01-12T03:22:56.922Z,60.80
2023-01-12T03:25:31.433Z,60.63
2023-01-12T03:28:01.696Z,60.53
2023-01-12T03:30:44.951Z,60.53
2023-01-12T03:33:13.372Z,60.07
2023-01-12T03:36:01.576Z,60.31
2023-01-12T03:38:46.566Z,60.29
2023-01-12T03:41:28.032Z,60.52
2023-01-12T03:44:00.800Z,60.07
2023-01-12T03:46:33.714Z,60.23
2023-01-12T03:49:54.640Z,59.78
2023-01-12T03:52:24.243Z,59.99
2023-01-12T03:54:54.235Z,60.12
2023-01-12T03:57:22.143Z,60.07
2023-01-12T03:59:49.535Z,60.00
2023-01-12T04:02:16.493Z,60.25
2023-01-12T04:04:43.610Z,60.49
2023-01-12T04:07:13.315Z,60.71
2023-01-12T04:09:40.428Z,60.79
2023-01-12T04:12:10.339Z,61.14
2023-01-12T04:14:42.733Z,61.08
2023-01-12T04:17:13.440Z,61.26
2023-01-12T04:19:41.455Z,61.17
2023-01-12T04:22:28.526Z,61.21
2023-01-12T04:24:55.640Z,61.32
2023-01-12T04:27:24.169Z,61.32
2023-01-12T04:29:51.296Z,61.43
2023-01-12T04:32:18.253Z,61.84
2023-01-12T04:34:46.512Z,61.89
2023-01-12T04:37:13.599Z,61.80
2023-01-12T04:39:40.658Z,61.77
2023-01-12T04:42:27.544Z,61.69
2023-01-12T04:44:54.530Z,62.15
2023-01-12T04:47:21.612Z,62.35
2023-01-12T04:49:48.764Z,62.67
2023-01-12T04:52:15.739Z,62.39
2023-01-12T04:54:42.867Z,61.79
2023-01-12T04:57:09.824Z,60.61
2023-01-12T04:59:36.894Z,60.48
2023-01-12T05:02:03.910Z,59.90
2023-01-12T05:04:31.130Z,59.96
2023-01-12T05:06:58.152Z,59.92
2023-01-12T05:09:43.522Z,60.09
2023-01-12T05:12:10.689Z,60.42
2023-01-12T05:14:37.607Z,60.25
2023-01-12T05:17:05.152Z,60.78
2023-01-12T05:19:32.573Z,60.21
2023-01-12T05:21:59.627Z,59.68
2023-01-12T05:24:26.686Z,60.29
2023-01-12T05:26:53.665Z,60.60
2023-01-12T05:29:20.774Z,61.21
2023-01-12T05:31:47.851Z,61.16
2023-01-12T05:34:14.993Z,61.21
2023-01-12T05:36:42.120Z,61.17
2023-01-12T05:39:09.034Z,61.41
2023-01-12T05:41:36.115Z,61.71
2023-01-12T05:44:03.223Z,61.84
2023-01-12T05:46:40.392Z,61.89
2023-01-12T05:49:08.899Z,61.71
2023-01-12T05:51:35.990Z,61.92
2023-01-12T05:54:03.315Z,61.57
2023-01-12T05:56:31.161Z,61.62
2023-01-12T05:59:00.854Z,62.26
2023-01-12T06:01:29.239Z,62.30
2023-01-12T06:03:58.995Z,62.44
2023-01-12T06:06:28.498Z,62.75
2023-01-12T06:08:55.735Z,62.91
2023-01-12T06:11:41.617Z,62.85
2023-01-12T06:14:10.039Z,62.90
2023-01-12T06:16:39.105Z,62.69
2023-01-12T06:19:07.714Z,62.71
2023-01-12T06:21:35.251Z,62.31
2023-01-12T06:24:02.422Z,61.34
2023-01-12T06:26:29.377Z,60.79
2023-01-12T06:28:56.479Z,60.76
2023-01-12T06:31:23.515Z,61.04
2023-01-12T06:33:50.550Z,60.71
2023-01-12T06:36:17.656Z,60.84
2023-01-12T06:38:44.821Z,60.48
2023-01-12T06:41:31.931Z,59.74
2023-01-12T06:44:00.047Z,59.22
2023-01-12T06:46:28.319Z,58.66
2023-01-12T06:48:57.284Z,58.03
2023-01-12T06:51:24.784Z,58.02
2023-01-12T06:53:51.916Z,58.39
2023-01-12T06:56:21.038Z,58.49
2023-01-12T06:58:48.675Z,58.84
2023-01-12T07:01:16.137Z,58.83
2023-01-12T07:03:43.223Z,59.09
2023-01-12T07:06:10.362Z,59.14
2023-01-12T07:08:37.297Z,59.28
2023-01-12T07:11:08.186Z,59.10
2023-01-12T07:13:35.603Z,59.07
2023-01-12T07:16:02.948Z,59.12
2023-01-12T07:18:31.356Z,59.06
2023-01-12T07:20:58.414Z,59.21
2023-01-12T07:23:26.736Z,59.16
2023-01-12T07:25:54.023Z,58.70
2023-01-12T07:28:21.113Z,58.27
2023-01-12T07:30:48.216Z,58.45
2023-01-12T07:33:18.525Z,58.68
2023-01-12T07:35:45.936Z,59.02
2023-01-12T07:38:13.092Z,59.52
2023-01-12T07:40:40.662Z,59.52
2023-01-12T07:43:09.120Z,59.79
2023-01-12T07:45:36.832Z,60.02
2023-01-12T07:48:04.209Z,60.30
2023-01-12T07:50:31.209Z,60.55
2023-01-12T07:53:02.358Z,60.08
2023-01-12T07:55:33.112Z,59.87
2023-01-12T07:58:03.444Z,59.64
2023-01-12T08:00:31.600Z,59.05
2023-01-12T08:03:09.140Z,59.65
2023-01-12T08:05:38.034Z,58.80
2023-01-12T08:08:06.101Z,58.26
2023-01-12T08:10:34.584Z,57.37
2023-01-12T08:13:01.883Z,56.77
2023-01-12T08:15:33.816Z,54.61
2023-01-12T08:18:07.070Z,54.41
2023-01-12T08:20:36.219Z,54.53
2023-01-12T08:23:23.690Z,55.30
2023-01-12T08:25:56.595Z,54.99
2023-01-12T08:28:45.233Z,53.49
2023-01-12T08:31:14.832Z,53.70
2023-01-12T08:33:42.956Z,53.34
2023-01-12T08:38:46.034Z,54.39
2023-01-12T08:41:31.659Z,55.56
2023-01-12T08:44:03.508Z,56.48
2023-01-12T08:46:35.175Z,56.48
2023-01-12T08:49:05.197Z,56.87
2023-01-12T08:51:34.126Z,57.36
2023-01-12T08:54:02.373Z,58.05
2023-01-12T08:56:29.724Z,57.63
2023-01-12T08:58:56.795Z,55.41
2023-01-12T09:01:24.091Z,54.40
2023-01-12T09:03:51.218Z,52.53
2023-01-12T09:06:22.091Z,49.62
2023-01-12T09:08:54.310Z,50.34
2023-01-12T09:11:21.993Z,50.70
2023-01-12T09:13:48.920Z,51.14
2023-01-12T09:16:19.107Z,50.28
2023-01-12T09:18:46.732Z,48.07
2023-01-12T09:21:16.896Z,45.36
2023-01-12T09:23:44.519Z,43.95
2023-01-12T09:26:19.970Z,42.23
2023-01-12T09:28:47.382Z,41.86
2023-01-12T09:31:18.761Z,43.36
2023-01-12T09:33:47.102Z,44.39
2023-01-12T09:36:21.018Z,43.04
2023-01-12T09:38:49.417Z,44.12
2023-01-12T09:41:57.597Z,44.94
2023-01-12T09:44:51.444Z,48.15
2023-01-12T09:47:24.589Z,47.60
2023-01-12T09:50:08.102Z,50.76
2023-01-12T09:52:38.720Z,49.87
2023-01-12T09:55:10.334Z,46.36
2023-01-12T09:58:05.127Z,48.02
2023-01-12T10:00:32.681Z,48.06
2023-01-12T10:03:21.435Z,47.43
2023-01-12T10:05:52.895Z,46.77
2023-01-12T10:08:40.992Z,46.87
2023-01-12T10:11:17.110Z,47.07
2023-01-12T10:14:21.505Z,48.73
2023-01-12T10:17:09.944Z,46.30
2023-01-12T10:19:50.867Z,44.78
2023-01-12T10:22:44.289Z,42.66
2023-01-12T10:25:20.483Z,42.63
2023-01-12T10:27:50.676Z,39.97
2023-01-12T10:30:47.024Z,40.28
2023-01-12T10:33:15.665Z,45.87
2023-01-12T10:35:52.511Z,46.46
2023-01-12T10:38:24.681Z,47.27
2023-01-12T10:41:14.185Z,47.10
2023-01-12T10:43:42.788Z,49.84
2023-01-12T10:46:24.345Z,51.45
2023-01-12T10:49:03.792Z,50.79
2023-01-12T10:51:35.708Z,48.26
2023-01-12T10:54:17.876Z,45.70
2023-01-12T10:57:07.907Z,41.98
2023-01-12T10:59:39.092Z,41.40
2023-01-12T11:02:07.294Z,43.26
2023-01-12T11:04:54.214Z,43.25
2023-01-12T11:07:22.447Z,42.19
2023-01-12T11:09:49.690Z,41.12
2023-01-12T11:12:31.264Z,41.61
2023-01-12T11:15:10.531Z,43.42
2023-01-12T11:17:52.013Z,43.40
2023-01-12T11:20:28.776Z,44.55
2023-01-12T11:23:01.551Z,47.77
2023-01-12T11:25:34.455Z,49.71
2023-01-12T11:28:29.419Z,52.51
2023-01-12T11:31:06.906Z,49.33
2023-01-12T11:33:47.447Z,46.51
2023-01-12T11:36:25.421Z,44.70
2023-01-12T11:39:19.038Z,43.95
2023-01-12T11:42:16.258Z,43.79
2023-01-12T11:44:58.017Z,43.23
2023-01-12T11:47:30.525Z,41.67
2023-01-12T11:50:11.744Z,40.59
2023-01-12T11:52:39.267Z,41.72
2023-01-12T11:55:12.442Z,42.10
2023-01-12T11:58:17.011Z,41.47
2023-01-12T12:00:55.905Z,41.60
2023-01-12T12:03:48.298Z,41.31
2023-01-12T12:06:30.516Z,41.99
2023-01-12T12:09:12.466Z,41.87
2023-01-12T12:12:02.444Z,40.71
2023-01-12T12:15:01.529Z,40.76
2023-01-12T12:18:11.660Z,41.66
2023-01-12T12:21:11.983Z,42.96
2023-01-12T12:24:04.146Z,45.60
2023-01-12T12:26:51.960Z,48.28
2023-01-12T12:29:34.024Z,47.92
2023-01-12T12:32:27.291Z,47.98
2023-01-12T12:35:14.856Z,48.06
2023-01-12T12:38:00.271Z,47.04
2023-01-12T12:40:53.352Z,47.37
2023-01-12T12:43:47.282Z,49.00
2023-01-12T12:46:32.753Z,49.89
2023-01-12T12:49:13.210Z,51.31
2023-01-12T12:51:41.939Z,51.21
2023-01-12T12:54:17.130Z,52.29
2023-01-12T12:56:45.734Z,53.73
2023-01-12T12:59:31.612Z,55.15
2023-01-12T13:02:01.446Z,55.70
2023-01-12T13:04:43.748Z,55.93
2023-01-12T13:07:20.060Z,54.74
2023-01-12T13:09:49.970Z,54.22
2023-01-12T13:12:34.038Z,54.19
2023-01-12T13:15:21.763Z,52.06
2023-01-12T13:17:50.787Z,51.93
2023-01-12T13:20:25.628Z,51.07
2023-01-12T13:22:53.731Z,50.42
2023-01-12T13:25:20.705Z,50.46
2023-01-12T13:28:00.930Z,50.97
2023-01-12T13:30:31.241Z,52.73
2023-01-12T13:33:23.380Z,53.86
2023-01-12T13:35:50.361Z,54.06
2023-01-12T13:38:44.518Z,54.67
2023-01-12T13:41:15.116Z,55.50
2023-01-12T13:43:49.969Z,54.88
2023-01-12T13:46:29.674Z,54.88
2023-01-12T13:48:57.417Z,54.22
2023-01-12T13:51:53.403Z,53.45
2023-01-12T13:54:20.490Z,51.79
2023-01-12T13:56:56.262Z,51.39
2023-01-12T13:59:25.141Z,51.10
2023-01-12T14:01:52.798Z,50.47
2023-01-12T14:04:38.652Z,51.72
2023-01-12T14:07:22.949Z,51.89
2023-01-12T14:10:33.201Z,51.51
2023-01-12T14:13:22.031Z,52.58
2023-01-12T14:16:07.568Z,52.28
2023-01-12T14:18:48.271Z,53.58
2023-01-12T14:21:32.998Z,55.25
2023-01-12T14:24:17.755Z,55.51
2023-01-12T14:26:44.904Z,56.55
2023-01-12T14:29:12.939Z,56.97
2023-01-12T14:31:53.968Z,57.59
2023-01-12T14:34:36.975Z,57.98
2023-01-12T14:37:08.178Z,58.26
2023-01-12T14:39:41.320Z,58.90
2023-01-12T14:42:37.609Z,58.48
2023-01-12T14:45:48.893Z,57.89
2023-01-12T14:48:32.407Z,58.35
2023-01-12T14:51:24.342Z,58.24
2023-01-12T14:54:01.612Z,58.92
2023-01-12T14:56:41.917Z,58.91
2023-01-12T14:59:15.595Z,59.07
2023-01-12T15:01:43.343Z,58.75
2023-01-12T15:04:22.636Z,58.41
2023-01-12T15:07:02.504Z,58.62
2023-01-12T15:09:33.227Z,58.53
2023-01-12T15:12:42.777Z,58.62
2023-01-12T15:15:26.359Z,59.33
2023-01-12T15:18:14.016Z,59.77
2023-01-12T15:21:04.777Z,60.37
2023-01-12T15:23:52.984Z,60.91
2023-01-12T15:26:21.203Z,61.37
2023-01-12T15:28:49.011Z,61.52
2023-01-12T15:31:30.193Z,61.66
2023-01-12T15:33:57.527Z,62.06
2023-01-12T15:36:25.212Z,63.72
2023-01-12T15:38:52.481Z,64.54
2023-01-12T15:41:41.845Z,65.14
2023-01-12T15:44:17.504Z,65.79
2023-01-12T15:46:44.995Z,66.25
2023-01-12T15:49:16.154Z,66.14
2023-01-12T15:51:47.999Z,65.98
2023-01-12T15:54:18.365Z,66.10
2023-01-12T15:56:46.230Z,66.29
2023-01-12T15:59:13.334Z,66.66
2023-01-12T16:01:47.176Z,67.08
2023-01-12T16:07:10.602Z,67.94
2023-01-12T16:09:37.767Z,68.58
2023-01-12T16:12:07.541Z,69.66
2023-01-12T16:14:34.716Z,69.87
2023-01-12T16:17:01.741Z,70.17
2023-01-12T16:19:28.930Z,70.22
2023-01-12T16:21:55.930Z,70.55
2023-01-12T16:24:26.827Z,70.81
2023-01-12T16:26:54.142Z,71.53
2023-01-12T16:29:22.237Z,72.13
2023-01-12T16:31:49.809Z,72.40
2023-01-12T16:34:18.962Z,72.73
2023-01-12T16:36:46.198Z,73.00
2023-01-12T16:39:13.319Z,73.28
2023-01-12T16:41:40.374Z,74.35
2023-01-12T16:44:07.634Z,74.77
2023-01-12T16:46:34.579Z,75.26
2023-01-12T16:49:05.156Z,75.36
2023-01-12T16:51:34.832Z,75.73
2023-01-12T16:54:03.035Z,76.23
2023-01-12T16:56:30.539Z,76.14
2023-01-12T16:58:58.187Z,76.37
2023-01-12T17:01:26.491Z,76.69
2023-01-12T17:03:57.925Z,76.87
2023-01-12T17:06:27.332Z,77.39
2023-01-12T17:08:56.352Z,77.35
2023-01-12T17:11:28.196Z,77.72
2023-01-12T17:13:56.953Z,78.11
2023-01-12T17:16:26.416Z,78.26
2023-01-12T17:18:54.712Z,78.70
2023-01-12T17:21:22.412Z,78.84
2023-01-12T17:23:49.689Z,79.16
2023-01-12T17:26:18.716Z,78.93
2023-01-12T17:28:47.495Z,79.32
2023-01-12T17:31:20.686Z,79.27
2023-01-12T17:33:48.423Z,80.00
2023-01-12T17:36:15.564Z,80.21
2023-01-12T17:38:42.727Z,80.55
2023-01-12T17:41:35.673Z,80.72
2023-01-12T17:44:05.162Z,81.05
2023-01-12T17:46:33.298Z,81.10
2023-01-12T17:49:02.103Z,81.54
2023-01-12T17:51:29.657Z,81.67
2023-01-12T17:53:57.757Z,82.06
2023-01-12T17:56:26.491Z,82.72
2023-01-12T17:58:54.541Z,83.03
2023-01-12T18:01:23.337Z,82.86
2023-01-12T18:03:50.507Z,83.05
2023-01-12T18:06:25.898Z,83.23
2023-01-12T18:08:56.631Z,83.43
2023-01-12T18:11:24.371Z,83.47
2023-01-12T18:13:51.739Z,83.54
2023-01-12T18:16:19.225Z,83.42
2023-01-12T18:18:47.587Z,83.75
2023-01-12T18:21:17.089Z,83.60
2023-01-12T18:23:44.342Z,83.60
2023-01-12T18:26:17.747Z,83.66
2023-01-12T18:28:44.833Z,83.80
2023-01-12T18:31:18.839Z,83.75
2023-01-12T18:33:55.319Z,84.53
2023-01-12T18:36:25.947Z,84.46
2023-01-12T18:38:54.255Z,84.49
2023-01-12T18:41:41.358Z,84.67
2023-01-12T18:44:09.623Z,84.52
2023-01-12T18:46:59.714Z,84.69
2023-01-12T18:49:29.254Z,84.49
2023-01-12T18:52:16.004Z,84.47
2023-01-12T18:54:43.258Z,84.57
2023-01-12T18:57:11.620Z,84.61
2023-01-12T18:59:40.418Z,84.54
2023-01-12T19:02:13.429Z,84.92
2023-01-12T19:04:46.231Z,84.65
2023-01-12T19:07:15.735Z,84.62
2023-01-12T19:09:43.334Z,84.85
2023-01-12T19:12:10.335Z,85.25
2023-01-12T19:14:55.979Z,84.96
2023-01-12T19:17:33.003Z,84.92
2023-01-12T19:20:06.466Z,84.97
2023-01-12T19:22:51.832Z,85.07
2023-01-12T19:25:40.748Z,84.83
2023-01-12T19:28:31.839Z,84.71
2023-01-12T19:31:03.438Z,84.83
2023-01-12T19:33:30.605Z,84.50
2023-01-12T19:35:57.827Z,84.52
2023-01-12T19:38:24.854Z,84.41
2023-01-12T19:40:55.447Z,84.46
2023-01-12T19:43:29.370Z,84.18
2023-01-12T19:45:59.343Z,84.43
2023-01-12T19:48:26.901Z,84.26
2023-01-12T19:50:54.478Z,84.23
2023-01-12T19:53:28.854Z,84.16
2023-01-12T19:55:56.348Z,84.21
2023-01-12T19:58:25.288Z,84.11
2023-01-12T20:00:55.083Z,84.07
2023-01-12T20:03:24.204Z,83.83
2023-01-12T20:05:52.316Z,83.90
2023-01-12T20:08:21.518Z,83.82
2023-01-12T20:10:56.091Z,83.99
2023-01-12T20:13:23.716Z,83.50
2023-01-12T20:15:51.238Z,83.41
2023-01-12T20:18:18.956Z,83.55
2023-01-12T20:20:46.087Z,83.53
2023-01-12T20:23:15.048Z,83.49
2023-01-12T20:25:43.157Z,83.39
2023-01-12T20:28:12.523Z,83.44
2023-01-12T20:30:41.692Z,83.52
2023-01-12T20:33:10.276Z,83.53
2023-01-12T20:35:40.934Z,83.51
2023-01-12T20:38:13.514Z,83.51
2023-01-12T20:40:40.688Z,83.54
2023-01-12T20:43:07.680Z,84.34
2023-01-12T20:45:34.750Z,85.75
2023-01-12T20:48:01.842Z,86.69
2023-01-12T20:50:29.001Z,86.58
2023-01-12T20:52:56.107Z,86.76
2023-01-12T20:55:23.168Z,86.82
2023-01-12T20:57:50.621Z,87.10
2023-01-12T21:00:18.151Z,87.29
2023-01-12T21:02:45.227Z,87.40
2023-01-12T21:05:12.300Z,87.71
2023-01-12T21:07:39.317Z,88.00
2023-01-12T21:10:08.925Z,88.62
2023-01-12T21:12:35.976Z,89.16
2023-01-12T21:15:04.089Z,89.83
2023-01-12T21:17:31.883Z,90.82
2023-01-12T21:19:58.918Z,90.84
2023-01-12T21:22:25.923Z,91.83
2023-01-12T21:24:53.046Z,91.93
2023-01-12T21:27:20.027Z,92.33
2023-01-12T21:29:49.294Z,93.53
2023-01-12T21:32:16.682Z,93.75
2023-01-12T21:34:43.833Z,94.42
2023-01-12T21:37:11.031Z,94.47
2023-01-12T21:39:38.160Z,94.98
2023-01-12T21:42:23.784Z,95.25
2023-01-12T21:44:50.918Z,95.25
2023-01-12T21:47:17.903Z,95.23
2023-01-12T21:49:45.112Z,95.05
2023-01-12T21:52:12.465Z,94.77
2023-01-12T21:54:39.720Z,94.72
2023-01-12T21:57:06.781Z,94.31
2023-01-12T21:59:33.840Z,94.12
2023-01-12T22:02:01.296Z,94.06
2023-01-12T22:04:28.434Z,93.82
2023-01-12T22:06:55.637Z,93.59
2023-01-12T22:09:23.627Z,93.06
2023-01-12T22:11:50.791Z,92.79
2023-01-12T22:14:17.864Z,92.74
2023-01-12T22:16:45.080Z,92.73
2023-01-12T22:19:12.144Z,92.70
2023-01-12T22:21:39.295Z,92.41
2023-01-12T22:24:06.810Z,92.09
2023-01-12T22:26:33.879Z,91.83
2023-01-12T22:29:01.005Z,91.57
2023-01-12T22:31:29.195Z,91.44
2023-01-12T22:34:04.142Z,91.24
2023-01-12T22:36:35.032Z,91.04
2023-01-12T22:39:02.696Z,90.77
2023-01-12T22:41:29.851Z,90.72
2023-01-12T22:43:57.033Z,90.56
2023-01-12T22:46:26.531Z,90.19
2023-01-12T22:48:56.753Z,89.80
2023-01-12T22:51:25.251Z,89.61
2023-01-12T22:53:53.037Z,89.37
2023-01-12T22:56:20.211Z,89.32
2023-01-12T22:58:52.373Z,89.12
2023-01-12T23:01:21.377Z,89.18
2023-01-12T23:03:49.877Z,89.23
2023-01-12T23:06:17.445Z,89.05
2023-01-12T23:08:45.389Z,88.95
2023-01-12T23:11:18.832Z,88.93
2023-01-12T23:13:46.561Z,88.65
2023-01-12T23:16:15.710Z,88.58
2023-01-12T23:18:44.628Z,88.17
2023-01-12T23:21:15.769Z,88.23
2023-01-12T23:23:43.018Z,88.15
2023-01-12T23:26:11.872Z,87.98
2023-01-12T23:28:43.944Z,87.87
2023-01-12T23:31:13.700Z,88.12
2023-01-12T23:33:43.250Z,87.83
2023-01-12T23:36:14.178Z,87.42
2023-01-12T23:38:41.942Z,87.51
2023-01-12T23:41:10.867Z,87.41
2023-01-12T23:43:38.346Z,87.23
2023-01-12T23:46:06.255Z,87.15
2023-01-12T23:48:34.078Z,87.16
2023-01-12T23:51:01.819Z,86.98
2023-01-12T23:53:30.070Z,86.77
2023-01-12T23:55:57.467Z,86.55
2023-01-12T23:58:25.028Z,86.32
